Kiss — ZGER9 — position and weather

sailwx.info

Track history (hours):
 
Tides and Currents Weather Stations Pressure Air Temp Water Temp Dewpoint Dewpoint Depression Visibility Wind Speed Wind Dir Waves Ship Positions

Kiss

Last reported at 2018-Jun-15 21:38 UTC. Time now 2018-Jun-20 23:09 UTC.
Position N 44°57' E 036°24'.

Length 46 m; draft 2.2 m.

Type: Pleasure craft. MMSI: 319077900.

Date/timePositionNaut miles runAvg speedWind from/ knotsBaromVisibWave heightAir tempDewpointWater temp
2018-Jun-15 21:38N 44°57' E 036°24'210.9
2018-Jun-15 21:29N 44°58' E 036°26'510.7
2018-Jun-15 21:00N 44°58' E 036°33'4110.8
2018-Jun-15 17:13N 44°39' E 037°24'311.5
2018-Jun-15 17:00N 44°37' E 037°27'611.5
2018-Jun-15 16:30N 44°34' E 037°33'611.4
2018-Jun-15 15:59N 44°30' E 037°40'511.1
2018-Jun-15 15:30N 44°26' E 037°45'611.4
2018-Jun-15 15:00N 44°25' E 037°53'511.2
2018-Jun-15 14:30N 44°23' E 038°00'611.1
2018-Jun-15 13:57N 44°20' E 038°08'510.9
2018-Jun-15 13:30N 44°18' E 038°14'611.0
2018-Jun-15 13:00N 44°16' E 038°21'611.2
2018-Jun-15 12:30N 44°13' E 038°28'611.2
2018-Jun-15 12:00N 44°11' E 038°35'611.2
2018-Jun-15 11:30N 44°09' E 038°42'511.1
2018-Jun-15 11:00N 44°06' E 038°49'611.2
2018-Jun-15 10:30N 44°02' E 038°54'611.2
2018-Jun-15 10:00N 43°58' E 038°60'611.4
2018-Jun-15 09:30N 43°54' E 039°05'611.5
2018-Jun-15 08:59N 43°50' E 039°11'  
Track history (hours):
 
Tides and Currents Weather Stations Pressure Air Temp Water Temp Dewpoint Dewpoint Depression Visibility Wind Speed Wind Dir Waves Ship Positions

Kiss

Last reported at 2018-Jun-15 21:38 UTC. Time now 2018-Jun-20 23:09 UTC.
Position N 44°57' E 036°24'.

Length 46 m; draft 2.2 m.

Type: Pleasure craft. MMSI: 319077900.

Date/timePositionNaut miles runAvg speedWind from/ knotsBaromVisibWave heightAir tempDewpointWater temp
2018-Jun-15 21:38N 44°57' E 036°24'210.9
2018-Jun-15 21:29N 44°58' E 036°26'510.7
2018-Jun-15 21:00N 44°58' E 036°33'4110.8
2018-Jun-15 17:13N 44°39' E 037°24'311.5
2018-Jun-15 17:00N 44°37' E 037°27'611.5
2018-Jun-15 16:30N 44°34' E 037°33'611.4
2018-Jun-15 15:59N 44°30' E 037°40'511.1
2018-Jun-15 15:30N 44°26' E 037°45'611.4
2018-Jun-15 15:00N 44°25' E 037°53'511.2
2018-Jun-15 14:30N 44°23' E 038°00'611.1
2018-Jun-15 13:57N 44°20' E 038°08'510.9
2018-Jun-15 13:30N 44°18' E 038°14'611.0
2018-Jun-15 13:00N 44°16' E 038°21'611.2
2018-Jun-15 12:30N 44°13' E 038°28'611.2
2018-Jun-15 12:00N 44°11' E 038°35'611.2
2018-Jun-15 11:30N 44°09' E 038°42'511.1
2018-Jun-15 11:00N 44°06' E 038°49'611.2
2018-Jun-15 10:30N 44°02' E 038°54'611.2
2018-Jun-15 10:00N 43°58' E 038°60'611.4
2018-Jun-15 09:30N 43°54' E 039°05'611.5
2018-Jun-15 08:59N 43°50' E 039°11'  

Dump ship's entire track history